Decoded Metar for LERI (Alcantarilla in SPAIN) (IATA:N/A) | Meteo·Mobile Aviation Weather
aviador You're here:

LERI Decoded Metar

Alcantarilla in SPAIN
Report Time2020-01-18 08:00:00
UTC Time2020-01-18 08:28:46
Flight Rules vfr VFR
Wind250° at 04 kt
W.Decomp.*RWY 25: 4.0 kt HW 0.1 kt RCW
Visibility9999 m
Phenomena:N/A
Clouds:N/A
Expected CloudBase > 800 ft AGL from Temp-Dew spread
CeilingNone
Temp06°C (ISA -9)
Dew Point04°C (87% RH)
AAT3.2°C
QNH1031 hPa
Density Alt-1,276 ft
Elevation246 ft
Report Wrong Elevation
Raw Report
METAR LERI 180800Z 25004KT CAVOK 06/04 Q1031 NOSIG=

Extra information for LERI:More info

Metar Taf Metar & Taf Last 4 Metars F.Rules Stats Wind Profile Meteogram Temp Stats Airport Information Weather charts Add Link Nearby VenuesMetar ALERT Operation Metar Decoded Social comments

TOTANA, (Aeroclub Totana)